Time;durP1;ratioP1;P1;durP2;ratioP2;P2;SDS_P1;SDS_P2;PMS_P1;PMS_P2;Temp;Humidity;BMP_temperature;BMP_pressure;BME280_temperature;BME280_humidity;BME280_pressure;Samples;Min_cycle;Max_cycle;Signal;HPM_P1;HPM_P2
2022/11/15 00:01:29;;;;;;;10.60;6.15;;;9.00;99.90;;;;;;5055921;28;20074;-75
2022/11/15 00:03:54;;;;;;;12.25;6.47;;;9.00;99.90;;;;;;5052263;28;20381;-77
2022/11/15 00:06:20;;;;;;;9.60;6.28;;;9.00;99.90;;;;;;5064072;28;20029;-76
2022/11/15 00:08:46;;;;;;;9.65;6.43;;;9.00;99.90;;;;;;5068213;28;20028;-75
2022/11/15 00:11:12;;;;;;;9.00;5.68;;;9.00;99.90;;;;;;5059997;28;20059;-75
2022/11/15 00:13:38;;;;;;;11.55;6.30;;;9.00;99.90;;;;;;5062341;28;20032;-75
2022/11/15 00:16:04;;;;;;;9.35;5.80;;;9.00;99.90;;;;;;5064358;28;20028;-76
2022/11/15 00:18:30;;;;;;;10.75;6.18;;;9.00;99.90;;;;;;5052764;28;20029;-76
2022/11/15 00:21:04;;;;;;;9.52;5.95;;;9.00;99.90;;;;;;5066753;28;20055;-76
2022/11/15 00:23:29;;;;;;;12.00;5.97;;;9.00;99.90;;;;;;5060180;28;20021;-77
2022/11/15 00:25:57;;;;;;;10.02;5.90;;;9.10;99.90;;;;;;5051266;28;20040;-76
2022/11/15 00:28:23;;;;;;;9.68;5.88;;;9.10;99.90;;;;;;5054629;28;20032;-77
2022/11/15 00:30:48;;;;;;;9.13;6.20;;;9.10;99.90;;;;;;5053490;28;20033;-77
2022/11/15 00:33:14;;;;;;;11.02;5.55;;;9.10;99.90;;;;;;5052465;28;20079;-76
2022/11/15 00:35:39;;;;;;;9.40;6.15;;;9.00;99.90;;;;;;5053488;28;20124;-77
2022/11/15 00:38:05;;;;;;;9.57;5.70;;;9.00;99.90;;;;;;5052861;28;20048;-76
2022/11/15 00:40:31;;;;;;;10.85;6.03;;;8.90;99.90;;;;;;5051835;28;20025;-76
2022/11/15 00:42:56;;;;;;;16.35;6.50;;;8.90;99.90;;;;;;5051735;28;20075;-76
2022/11/15 00:45:23;;;;;;;12.48;5.82;;;9.00;99.90;;;;;;5052032;28;20025;-77
2022/11/15 00:47:49;;;;;;;11.40;6.57;;;9.00;99.90;;;;;;5053420;28;20025;-77
2022/11/15 00:50:15;;;;;;;8.90;5.60;;;9.00;99.90;;;;;;5051513;28;20447;-77
2022/11/15 00:52:40;;;;;;;9.68;5.85;;;9.00;99.90;;;;;;5052914;28;20484;-76
2022/11/15 00:55:06;;;;;;;9.40;5.88;;;9.00;99.90;;;;;;5051311;28;20067;-77
2022/11/15 00:57:32;;;;;;;13.75;6.13;;;9.00;99.90;;;;;;5051723;28;20033;-77
2022/11/15 00:59:58;;;;;;;10.23;5.47;;;9.00;99.90;;;;;;5053179;28;20040;-76
2022/11/15 01:02:23;;;;;;;10.88;5.32;;;9.00;99.90;;;;;;5053117;28;20458;-76
2022/11/15 01:04:49;;;;;;;8.60;5.72;;;9.00;99.90;;;;;;5052997;28;20035;-76
2022/11/15 01:07:14;;;;;;;9.05;5.80;;;9.00;99.90;;;;;;5052562;28;20025;-76
2022/11/15 01:09:40;;;;;;;9.85;5.80;;;9.10;99.90;;;;;;5051627;28;20079;-77
2022/11/15 01:12:06;;;;;;;10.00;5.30;;;9.10;99.90;;;;;;5051752;28;20524;-78
2022/11/15 01:14:31;;;;;;;8.00;5.75;;;9.10;99.90;;;;;;5052029;28;20022;-77
2022/11/15 01:16:57;;;;;;;9.15;5.60;;;9.10;99.90;;;;;;5052132;28;20033;-77
2022/11/15 01:19:22;;;;;;;10.57;6.00;;;9.10;99.90;;;;;;5051655;28;20435;-77
2022/11/15 01:21:51;;;;;;;11.65;5.78;;;9.10;99.90;;;;;;5053149;28;20079;-77
2022/11/15 01:24:17;;;;;;;10.52;5.53;;;9.10;99.90;;;;;;5051312;28;20036;-77
2022/11/15 01:26:42;;;;;;;10.10;5.50;;;9.00;99.90;;;;;;5051744;28;20067;-77
2022/11/15 01:29:08;;;;;;;10.75;5.53;;;9.10;99.90;;;;;;5052005;28;20108;-76
2022/11/15 01:31:34;;;;;;;10.65;5.45;;;9.10;99.90;;;;;;5053331;28;20036;-77
2022/11/15 01:33:59;;;;;;;7.22;5.07;;;9.20;99.90;;;;;;5052696;28;20102;-76
2022/11/15 01:36:25;;;;;;;9.07;5.35;;;9.20;99.90;;;;;;5052653;28;20029;-77
2022/11/15 01:38:55;;;;;;;7.88;5.22;;;9.20;99.90;;;;;;5052886;28;20548;-77
2022/11/15 01:41:26;;;;;;;10.60;5.07;;;9.20;99.90;;;;;;5051124;28;20325;-76
2022/11/15 01:43:54;;;;;;;11.77;5.47;;;9.20;99.90;;;;;;5052971;28;20085;-76
2022/11/15 01:46:23;;;;;;;9.82;5.10;;;9.20;99.90;;;;;;5050945;28;20037;-77
2022/11/15 01:48:51;;;;;;;8.40;5.20;;;9.30;99.90;;;;;;5051638;28;20029;-77
2022/11/15 01:51:19;;;;;;;10.50;5.35;;;9.30;99.90;;;;;;5052253;28;20031;-77
2022/11/15 01:53:49;;;;;;;8.23;5.57;;;9.30;99.90;;;;;;5051659;28;20032;-76
2022/11/15 01:56:25;;;;;;;9.10;5.70;;;9.30;99.90;;;;;;5050336;28;20508;-77
2022/11/15 01:58:52;;;;;;;9.25;4.93;;;9.30;99.90;;;;;;5052444;28;20029;-76
2022/11/15 02:01:19;;;;;;;8.63;4.85;;;9.40;99.90;;;;;;5050402;28;20501;-77
2022/11/15 02:04:24;;;;;;;8.63;4.95;;;9.30;99.90;;;;;;5051228;28;20073;-76
2022/11/15 02:06:50;;;;;;;8.55;4.57;;;9.40;99.90;;;;;;5030203;28;20030;-76
2022/11/15 02:09:16;;;;;;;7.63;5.45;;;9.30;99.90;;;;;;5042894;28;20079;-75
2022/11/15 02:11:43;;;;;;;9.93;5.43;;;9.40;99.90;;;;;;5052578;28;20103;-76
2022/11/15 02:14:11;;;;;;;8.85;5.53;;;9.40;99.90;;;;;;5050497;28;20035;-77
2022/11/15 02:17:15;;;;;;;8.57;4.88;;;9.30;99.90;;;;;;5052038;28;20025;-77
2022/11/15 02:19:50;;;;;;;7.47;4.43;;;9.30;99.90;;;;;;5051060;28;20025;-77
2022/11/15 02:22:31;;;;;;;8.93;5.20;;;9.30;99.90;;;;;;5050283;28;20036;-77
2022/11/15 02:25:18;;;;;;;8.10;5.13;;;9.30;99.90;;;;;;5051119;28;20025;-76
2022/11/15 02:28:12;;;;;;;8.63;5.47;;;9.20;99.90;;;;;;5051967;28;20025;-77
2022/11/15 02:30:52;;;;;;;8.07;4.72;;;9.10;99.90;;;;;;5050723;28;20134;-76
2022/11/15 02:33:56;;;;;;;9.70;5.35;;;9.10;99.90;;;;;;5051507;28;20374;-77
2022/11/15 02:36:47;;;;;;;7.70;5.00;;;9.10;99.90;;;;;;5051370;28;20025;-77
2022/11/15 02:39:23;;;;;;;9.05;5.10;;;9.10;99.90;;;;;;5051642;28;20037;-77
2022/11/15 02:42:03;;;;;;;8.60;4.65;;;9.10;99.90;;;;;;5054538;28;20032;-76
2022/11/15 02:44:40;;;;;;;9.40;4.72;;;9.00;99.90;;;;;;5054027;28;20024;-76
2022/11/15 02:47:14;;;;;;;8.23;5.05;;;9.10;99.90;;;;;;5053972;28;20120;-77
2022/11/15 02:49:49;;;;;;;7.80;5.00;;;9.10;99.90;;;;;;5055450;28;20021;-78
2022/11/15 02:52:22;;;;;;;9.18;5.30;;;9.10;99.90;;;;;;5053741;28;20466;-76
2022/11/15 02:54:55;;;;;;;7.32;4.30;;;9.10;99.90;;;;;;5054408;28;20052;-77
2022/11/15 02:57:29;;;;;;;9.45;5.07;;;9.10;99.90;;;;;;5054897;28;20071;-77
2022/11/15 03:00:14;;;;;;;7.35;4.35;;;9.20;99.90;;;;;;5054310;28;20035;-77
2022/11/15 03:02:49;;;;;;;7.88;4.70;;;9.20;99.90;;;;;;5054356;28;20040;-77
2022/11/15 03:05:26;;;;;;;7.90;4.50;;;9.20;99.90;;;;;;5053875;28;20025;-77
2022/11/15 03:08:12;;;;;;;9.50;4.60;;;9.30;99.90;;;;;;5055423;28;20079;-77
2022/11/15 03:10:46;;;;;;;9.30;4.63;;;9.30;99.90;;;;;;5055637;28;20046;-77
2022/11/15 03:13:49;;;;;;;5.78;4.07;;;9.30;99.90;;;;;;5054672;28;20048;-77
2022/11/15 03:16:34;;;;;;;7.10;4.38;;;9.30;99.90;;;;;;5053340;28;20025;-77
2022/11/15 03:19:13;;;;;;;5.30;3.90;;;9.30;99.90;;;;;;5053817;28;20117;-77
2022/11/15 03:21:40;;;;;;;5.35;3.90;;;9.30;99.90;;;;;;5055303;28;20477;-77
2022/11/15 03:24:08;;;;;;;6.22;4.28;;;9.30;99.90;;;;;;5055213;28;20104;-77
2022/11/15 03:26:36;;;;;;;6.90;4.15;;;9.40;99.90;;;;;;5053923;28;20033;-77
2022/11/15 03:29:11;;;;;;;8.75;4.15;;;9.40;99.90;;;;;;5053821;28;20028;-77
2022/11/15 03:31:47;;;;;;;6.15;4.03;;;9.40;99.90;;;;;;5053841;28;20029;-77
2022/11/15 03:34:39;;;;;;;7.95;4.00;;;9.40;99.90;;;;;;5053261;28;20141;-77
2022/11/15 03:37:06;;;;;;;8.50;4.78;;;9.40;99.90;;;;;;5054936;28;20075;-77
2022/11/15 03:39:33;;;;;;;8.20;4.57;;;9.40;99.90;;;;;;5053016;28;20067;-77
2022/11/15 03:42:01;;;;;;;8.02;4.05;;;9.50;99.90;;;;;;5054610;28;20029;-77
2022/11/15 03:44:36;;;;;;;6.65;4.15;;;9.40;99.90;;;;;;5054304;28;20359;-77
2022/11/15 03:47:21;;;;;;;6.82;4.30;;;9.50;99.90;;;;;;5054773;28;20096;-77
2022/11/15 03:49:57;;;;;;;6.07;3.70;;;9.50;99.90;;;;;;5053426;28;20029;-77
2022/11/15 03:52:23;;;;;;;7.97;3.80;;;9.40;99.90;;;;;;5053974;28;20032;-77
2022/11/15 03:54:52;;;;;;;6.53;4.15;;;9.50;99.90;;;;;;5053241;28;20033;-77
2022/11/15 03:57:17;;;;;;;6.93;3.88;;;9.40;99.90;;;;;;5053929;28;20025;-77
2022/11/15 03:59:43;;;;;;;8.00;4.50;;;9.40;99.90;;;;;;5053182;28;20386;-77
2022/11/15 04:02:09;;;;;;;6.20;4.10;;;9.50;99.90;;;;;;5054436;28;20036;-77
2022/11/15 04:04:34;;;;;;;8.88;4.78;;;9.50;99.90;;;;;;5053242;28;20025;-77
2022/11/15 04:07:00;;;;;;;8.07;4.22;;;9.50;99.90;;;;;;5052825;28;20032;-76
2022/11/15 04:09:25;;;;;;;7.32;4.55;;;9.50;99.90;;;;;;5051962;28;20078;-76
2022/11/15 04:11:51;;;;;;;7.38;4.63;;;9.50;99.90;;;;;;5054011;28;20029;-75
2022/11/15 04:14:16;;;;;;;8.45;4.28;;;9.50;99.90;;;;;;5052191;28;20040;-76
2022/11/15 04:16:42;;;;;;;7.28;4.20;;;9.60;99.90;;;;;;5052838;28;20036;-76
2022/11/15 04:24:36;;;;;;;7.53;4.10;;;9.50;99.90;;;;;;5053994;28;20121;-76
2022/11/15 04:27:01;;;;;;;9.95;4.63;;;9.60;99.90;;;;;;5052527;28;20063;-76
2022/11/15 04:29:36;;;;;;;7.25;4.28;;;9.60;99.90;;;;;;5052999;28;20455;-76
2022/11/15 04:32:06;;;;;;;7.25;4.60;;;9.60;99.90;;;;;;5053728;28;20036;-76
2022/11/15 04:34:32;;;;;;;8.10;4.38;;;9.60;99.90;;;;;;5051739;28;20474;-76
2022/11/15 04:37:13;;;;;;;7.55;4.38;;;9.60;99.90;;;;;;5053520;28;20057;-76
2022/11/15 04:39:40;;;;;;;7.78;4.28;;;9.60;99.90;;;;;;5052342;28;20662;-76
2022/11/15 04:42:05;;;;;;;6.40;3.85;;;9.60;99.90;;;;;;5053391;28;20053;-76
2022/11/15 04:44:31;;;;;;;6.15;4.32;;;9.60;99.90;;;;;;5053054;28;20241;-76
2022/11/15 04:46:56;;;;;;;7.35;4.40;;;9.60;99.90;;;;;;5053024;28;20025;-76
2022/11/15 04:49:22;;;;;;;6.00;4.20;;;9.60;99.90;;;;;;5051506;28;20463;-77
2022/11/15 04:51:48;;;;;;;6.13;4.22;;;9.60;99.90;;;;;;5053329;28;20036;-76
2022/11/15 04:54:13;;;;;;;7.97;4.03;;;9.60;99.90;;;;;;5051649;28;20094;-77
2022/11/15 04:56:39;;;;;;;7.25;3.95;;;9.60;99.90;;;;;;5052091;28;20025;-77
2022/11/15 04:59:05;;;;;;;8.23;3.50;;;9.70;99.90;;;;;;5053221;28;20112;-76
2022/11/15 05:01:30;;;;;;;7.95;4.28;;;9.60;99.90;;;;;;5050693;28;20033;-76
2022/11/15 05:06:40;;;;;;;5.82;3.60;;;9.70;99.90;;;;;;5053067;28;20456;-76
2022/11/15 05:09:06;;;;;;;7.35;3.80;;;9.70;99.90;;;;;;5051756;28;20021;-77
2022/11/15 05:11:31;;;;;;;6.07;3.83;;;9.70;99.90;;;;;;5050757;28;20044;-77
2022/11/15 05:13:57;;;;;;;5.80;3.90;;;9.70;99.90;;;;;;5053224;28;20024;-76
2022/11/15 05:16:23;;;;;;;7.43;3.75;;;9.70;99.90;;;;;;5051247;28;20395;-76
2022/11/15 05:18:53;;;;;;;8.73;3.72;;;9.70;99.90;;;;;;5053239;28;20035;-77
2022/11/15 05:21:19;;;;;;;8.05;4.03;;;9.70;99.90;;;;;;5051290;28;20029;-78
2022/11/15 05:23:44;;;;;;;5.32;3.90;;;9.70;99.90;;;;;;5053284;28;20040;-77
2022/11/15 05:26:10;;;;;;;7.63;3.47;;;9.70;99.90;;;;;;5052938;28;20037;-77
2022/11/15 05:28:37;;;;;;;5.40;3.63;;;9.70;99.90;;;;;;5051533;28;20063;-77
2022/11/15 05:31:04;;;;;;;6.82;3.35;;;9.70;99.90;;;;;;5051475;28;20033;-76
2022/11/15 05:33:31;;;;;;;6.07;3.78;;;9.70;99.90;;;;;;5050997;28;20033;-76
2022/11/15 05:36:07;;;;;;;4.35;3.60;;;9.70;99.90;;;;;;5052445;28;20033;-76
2022/11/15 05:38:33;;;;;;;4.75;3.30;;;9.70;99.90;;;;;;5050908;28;20029;-77
2022/11/15 05:41:00;;;;;;;5.47;3.80;;;9.70;99.90;;;;;;5051330;28;20120;-77
2022/11/15 05:43:29;;;;;;;7.75;3.47;;;9.70;99.90;;;;;;5051148;28;20025;-76
2022/11/15 05:45:55;;;;;;;5.03;3.40;;;9.70;99.90;;;;;;5052611;28;20025;-77
2022/11/15 05:48:20;;;;;;;7.72;3.50;;;9.80;99.90;;;;;;5051113;28;20086;-77
2022/11/15 05:50:47;;;;;;;7.57;3.80;;;9.80;99.90;;;;;;5051705;28;20113;-77
2022/11/15 05:53:15;;;;;;;6.60;3.50;;;9.80;99.90;;;;;;5051516;28;20512;-77
2022/11/15 05:55:41;;;;;;;5.78;3.38;;;9.80;99.90;;;;;;5052112;28;20497;-77
2022/11/15 05:58:07;;;;;;;4.78;3.35;;;9.80;99.90;;;;;;5052634;28;20040;-76
2022/11/15 06:00:33;;;;;;;6.55;4.10;;;9.80;99.90;;;;;;5050613;28;20043;-77
2022/11/15 06:02:59;;;;;;;7.90;3.17;;;9.80;99.90;;;;;;5052694;28;20112;-77
2022/11/15 06:05:24;;;;;;;5.57;3.33;;;9.80;99.90;;;;;;5050813;28;20470;-77
2022/11/15 06:07:50;;;;;;;8.18;3.88;;;9.80;99.90;;;;;;5048398;28;20025;-77
2022/11/15 06:10:16;;;;;;;6.63;3.70;;;9.80;99.90;;;;;;5049934;28;20508;-76
2022/11/15 06:12:42;;;;;;;7.43;3.40;;;9.80;99.90;;;;;;5052699;28;20036;-77
2022/11/15 06:15:08;;;;;;;6.57;3.47;;;9.70;99.90;;;;;;5052758;28;20595;-76
2022/11/15 06:17:33;;;;;;;7.47;3.72;;;9.70;99.90;;;;;;5071582;28;20032;-78
2022/11/15 06:19:59;;;;;;;5.60;3.47;;;9.70;99.90;;;;;;5063482;28;20040;-76
2022/11/15 06:22:24;;;;;;;5.80;3.30;;;9.70;99.90;;;;;;5054909;28;20470;-74
2022/11/15 06:24:50;;;;;;;6.95;3.40;;;9.70;99.90;;;;;;5055695;28;20025;-77
2022/11/15 06:27:16;;;;;;;6.15;3.30;;;9.80;99.90;;;;;;5057925;28;20024;-78
2022/11/15 06:29:41;;;;;;;5.88;3.15;;;9.80;99.90;;;;;;5057212;28;20049;-74
2022/11/15 06:32:07;;;;;;;4.97;2.88;;;9.70;99.90;;;;;;5056725;28;20075;-76
2022/11/15 06:34:33;;;;;;;6.32;3.33;;;9.80;99.90;;;;;;5056103;28;20036;-76
2022/11/15 06:36:58;;;;;;;5.43;3.72;;;9.70;99.90;;;;;;5058389;28;20025;-76
2022/11/15 06:39:24;;;;;;;10.80;3.63;;;9.70;99.90;;;;;;5057133;28;20033;-76
2022/11/15 06:41:49;;;;;;;6.53;3.80;;;9.70;99.90;;;;;;5072060;28;20033;-76
2022/11/15 06:44:16;;;;;;;6.78;3.75;;;9.70;99.90;;;;;;5070348;28;20032;-76
2022/11/15 06:46:44;;;;;;;8.50;4.22;;;9.70;99.90;;;;;;5056371;28;20021;-76
2022/11/15 06:49:09;;;;;;;7.60;3.78;;;9.80;99.90;;;;;;5057878;28;20497;-76
2022/11/15 06:51:35;;;;;;;6.35;3.90;;;9.80;99.90;;;;;;5055705;28;20029;-76
2022/11/15 06:54:00;;;;;;;6.97;3.58;;;9.80;99.90;;;;;;5055361;28;20417;-76
2022/11/15 06:56:26;;;;;;;8.90;3.88;;;9.80;99.90;;;;;;5063099;28;20033;-76
2022/11/15 06:58:51;;;;;;;6.75;3.53;;;9.80;99.90;;;;;;5061634;28;20033;-74
2022/11/15 07:01:17;;;;;;;8.07;3.70;;;9.80;99.90;;;;;;5056756;28;20032;-80
2022/11/15 07:03:43;;;;;;;5.88;3.30;;;9.80;99.90;;;;;;5056400;28;20107;-74
2022/11/15 07:06:10;;;;;;;5.60;3.40;;;9.80;99.90;;;;;;5055969;28;20035;-74
2022/11/15 07:08:35;;;;;;;5.28;3.80;;;9.90;99.90;;;;;;5052892;28;20036;-76
2022/11/15 07:11:04;;;;;;;6.93;4.00;;;9.90;99.90;;;;;;5054249;28;20045;-75
2022/11/15 07:13:34;;;;;;;7.97;3.72;;;9.90;99.90;;;;;;5054131;28;20040;-76
2022/11/15 07:16:09;;;;;;;7.28;4.13;;;9.90;99.90;;;;;;5055715;28;20036;-76
2022/11/15 07:18:36;;;;;;;9.90;3.72;;;9.90;99.90;;;;;;5054426;28;20375;-76
2022/11/15 07:21:06;;;;;;;6.82;3.42;;;9.90;99.90;;;;;;5058294;28;20029;-74
2022/11/15 07:23:32;;;;;;;6.82;3.90;;;9.90;99.90;;;;;;5040701;28;20544;-77
2022/11/15 07:25:58;;;;;;;6.13;3.15;;;9.90;99.90;;;;;;5054686;28;20064;-76
2022/11/15 07:28:25;;;;;;;5.53;3.30;;;9.90;99.90;;;;;;5053988;28;20025;-74
2022/11/15 07:30:50;;;;;;;6.75;3.40;;;9.90;99.90;;;;;;5055107;28;20060;-78
2022/11/15 07:33:16;;;;;;;6.22;3.70;;;10.00;99.90;;;;;;5051344;28;20512;-77
2022/11/15 07:35:42;;;;;;;5.70;3.33;;;10.00;99.90;;;;;;5057206;28;20033;-74
2022/11/15 07:38:08;;;;;;;3.85;3.20;;;10.00;99.90;;;;;;5069429;28;20032;-76
2022/11/15 07:40:34;;;;;;;5.78;4.00;;;10.00;99.90;;;;;;5067697;28;20040;-76
2022/11/15 07:43:08;;;;;;;5.60;3.38;;;10.00;99.90;;;;;;5062103;28;20025;-75
2022/11/15 07:45:34;;;;;;;5.05;3.13;;;10.00;99.90;;;;;;5059726;28;20024;-76
2022/11/15 07:48:00;;;;;;;5.32;3.45;;;10.00;99.90;;;;;;5052930;28;20356;-75
2022/11/15 07:50:27;;;;;;;5.47;3.72;;;10.00;99.90;;;;;;5056804;28;20024;-75
2022/11/15 07:52:58;;;;;;;9.35;3.60;;;10.00;99.90;;;;;;5058074;28;20501;-75
2022/11/15 07:55:24;;;;;;;4.57;3.42;;;10.00;99.90;;;;;;5061379;28;20091;-77
2022/11/15 07:57:50;;;;;;;5.22;3.28;;;10.10;99.90;;;;;;5045427;28;20129;-74
2022/11/15 08:00:17;;;;;;;9.80;3.58;;;10.10;99.90;;;;;;5056718;28;20021;-75
2022/11/15 08:02:42;;;;;;;7.85;3.33;;;10.10;99.90;;;;;;5054001;28;20055;-74
2022/11/15 08:05:08;;;;;;;6.40;3.25;;;10.20;99.90;;;;;;5055235;28;20425;-75
2022/11/15 08:07:34;;;;;;;5.30;3.40;;;10.20;99.90;;;;;;5056875;28;20061;-75
2022/11/15 08:10:01;;;;;;;5.10;3.20;;;10.20;99.90;;;;;;5066232;28;20607;-76
2022/11/15 08:12:28;;;;;;;5.38;3.28;;;10.30;99.90;;;;;;5058583;28;20058;-77
2022/11/15 08:14:55;;;;;;;4.97;3.10;;;10.20;99.90;;;;;;5055877;28;20036;-78
2022/11/15 08:17:20;;;;;;;4.93;3.05;;;10.30;99.90;;;;;;5059627;28;20044;-77
2022/11/15 08:19:46;;;;;;;9.77;3.63;;;10.30;99.90;;;;;;5063598;28;20071;-75
2022/11/15 08:22:11;;;;;;;5.20;3.22;;;10.30;99.90;;;;;;5061346;28;20024;-76
2022/11/15 08:24:37;;;;;;;5.95;3.10;;;10.40;99.90;;;;;;5056614;28;20029;-78
2022/11/15 08:27:03;;;;;;;4.35;3.00;;;10.40;99.90;;;;;;5056599;28;20049;-76
2022/11/15 08:29:28;;;;;;;4.85;2.90;;;10.40;99.90;;;;;;5065513;28;20021;-76
2022/11/15 08:31:55;;;;;;;5.80;3.08;;;10.50;99.90;;;;;;5060513;28;20179;-77
2022/11/15 08:34:21;;;;;;;6.72;3.13;;;10.50;99.90;;;;;;5065893;28;20020;-77
2022/11/15 08:36:47;;;;;;;5.25;3.25;;;10.50;99.90;;;;;;5060048;28;20033;-74
2022/11/15 08:39:13;;;;;;;5.15;3.00;;;10.60;99.90;;;;;;5040156;28;20025;-75
2022/11/15 08:41:38;;;;;;;6.78;2.85;;;10.60;99.90;;;;;;5055206;28;20518;-77
2022/11/15 08:44:04;;;;;;;6.57;2.88;;;10.70;99.90;;;;;;5064265;28;20092;-76
2022/11/15 08:46:30;;;;;;;6.78;3.03;;;10.70;99.90;;;;;;5056316;28;20029;-76
2022/11/15 08:48:56;;;;;;;5.13;2.70;;;10.80;99.90;;;;;;5057808;28;20454;-77
2022/11/15 08:51:21;;;;;;;5.93;3.28;;;10.80;99.90;;;;;;5058615;28;20470;-74
2022/11/15 08:53:47;;;;;;;5.85;2.95;;;10.80;99.90;;;;;;5055697;28;20036;-75
2022/11/15 08:56:14;;;;;;;5.53;2.67;;;10.80;99.90;;;;;;5057114;28;20039;-76
2022/11/15 08:58:40;;;;;;;5.88;3.05;;;10.80;99.90;;;;;;5056650;28;20072;-77
2022/11/15 09:01:13;;;;;;;5.22;2.75;;;10.80;99.90;;;;;;5058035;28;20474;-76
2022/11/15 09:03:40;;;;;;;5.57;2.80;;;10.80;99.90;;;;;;5057846;28;20033;-76
2022/11/15 09:06:05;;;;;;;7.78;2.70;;;10.90;99.90;;;;;;5055653;28;20029;-76
2022/11/15 09:08:31;;;;;;;6.82;3.42;;;11.00;99.90;;;;;;5056769;28;20102;-77
2022/11/15 09:10:57;;;;;;;5.68;3.30;;;11.00;99.90;;;;;;5057019;28;20045;-75
2022/11/15 09:13:22;;;;;;;6.40;2.90;;;11.00;99.90;;;;;;5058173;28;20086;-75
2022/11/15 09:15:48;;;;;;;4.40;2.67;;;11.10;99.90;;;;;;5050258;28;20039;-75
2022/11/15 09:18:13;;;;;;;5.00;2.72;;;11.20;99.90;;;;;;5057592;28;20070;-77
2022/11/15 09:20:39;;;;;;;5.53;2.22;;;11.20;99.90;;;;;;5058492;28;20372;-76
2022/11/15 09:23:05;;;;;;;4.13;2.45;;;11.20;99.90;;;;;;5058945;28;20363;-74
2022/11/15 09:25:32;;;;;;;3.63;2.20;;;11.20;99.90;;;;;;5058377;28;20037;-75
2022/11/15 09:27:57;;;;;;;4.55;2.50;;;11.20;99.90;;;;;;5054194;28;20024;-75
2022/11/15 09:30:24;;;;;;;5.00;2.63;;;11.30;99.90;;;;;;5056380;28;20021;-76
2022/11/15 09:32:50;;;;;;;5.32;2.47;;;11.30;99.90;;;;;;5056885;28;20130;-75
2022/11/15 09:35:16;;;;;;;4.15;2.47;;;11.30;99.90;;;;;;5055769;28;20082;-75
2022/11/15 09:37:42;;;;;;;4.32;2.60;;;11.40;99.90;;;;;;5052050;28;20043;-75
2022/11/15 09:40:20;;;;;;;4.03;2.72;;;11.40;99.90;;;;;;5047499;28;20021;-75
2022/11/15 09:43:22;;;;;;;7.95;2.78;;;11.50;99.90;;;;;;5049975;28;20029;-75
2022/11/15 09:46:00;;;;;;;4.50;2.63;;;11.50;99.90;;;;;;5050011;28;20029;-74
2022/11/15 09:48:56;;;;;;;5.32;3.10;;;11.50;99.90;;;;;;5050680;28;20029;-75
2022/11/15 09:51:32;;;;;;;7.18;2.83;;;11.50;99.90;;;;;;5057566;28;20479;-75
2022/11/15 09:54:07;;;;;;;5.72;3.17;;;11.50;99.90;;;;;;5061742;28;20020;-75
2022/11/15 09:56:36;;;;;;;7.60;2.95;;;11.50;99.90;;;;;;5064572;28;20029;-75
2022/11/15 09:59:16;;;;;;;5.53;3.03;;;11.50;99.90;;;;;;5060690;28;20119;-75
2022/11/15 10:01:50;;;;;;;7.60;2.95;;;11.50;99.90;;;;;;5060289;28;20041;-76
2022/11/15 10:04:18;;;;;;;6.15;2.80;;;11.50;99.90;;;;;;5061684;28;20070;-76
2022/11/15 10:06:52;;;;;;;5.93;3.40;;;11.50;99.90;;;;;;5066038;28;20591;-75
2022/11/15 10:09:26;;;;;;;8.27;3.67;;;11.50;99.90;;;;;;5056713;28;20446;-75
2022/11/15 10:11:51;;;;;;;7.00;3.67;;;11.50;99.90;;;;;;5052926;28;20070;-76
2022/11/15 10:14:21;;;;;;;6.93;3.55;;;11.50;99.90;;;;;;5062477;28;20025;-75
2022/11/15 10:16:58;;;;;;;7.90;3.83;;;11.50;99.90;;;;;;5065220;28;20358;-75
2022/11/15 10:19:24;;;;;;;8.05;4.10;;;11.50;99.90;;;;;;5066490;28;20032;-76
2022/11/15 10:22:11;;;;;;;7.50;4.45;;;11.50;99.90;;;;;;5058911;28;20454;-75
2022/11/15 10:24:44;;;;;;;7.50;4.30;;;11.50;99.90;;;;;;5059067;28;20104;-75
2022/11/15 10:27:15;;;;;;;10.43;3.80;;;11.60;99.90;;;;;;5062431;28;20030;-75
2022/11/15 10:29:47;;;;;;;7.40;3.75;;;11.60;99.90;;;;;;5061508;28;20378;-75
2022/11/15 10:32:14;;;;;;;8.27;3.78;;;11.60;99.90;;;;;;5073804;28;20043;-75
2022/11/15 10:34:40;;;;;;;7.63;3.72;;;11.60;99.90;;;;;;5057331;28;20086;-75
2022/11/15 10:37:06;;;;;;;5.57;3.33;;;11.60;99.90;;;;;;5062056;28;20537;-75
2022/11/15 10:39:33;;;;;;;7.65;3.10;;;11.60;99.90;;;;;;5061312;28;20108;-75
2022/11/15 10:42:25;;;;;;;6.65;3.20;;;11.60;99.90;;;;;;5058534;28;20060;-75
2022/11/15 10:44:51;;;;;;;4.90;3.13;;;11.60;99.90;;;;;;5058966;28;20530;-75
2022/11/15 10:47:31;;;;;;;4.78;3.15;;;11.70;99.90;;;;;;5069728;28;20107;-75
2022/11/15 10:50:07;;;;;;;7.45;3.50;;;11.70;99.90;;;;;;5059221;28;20025;-75
2022/11/15 10:52:35;;;;;;;5.10;3.38;;;11.70;99.90;;;;;;5067981;28;20032;-75
2022/11/15 10:55:06;;;;;;;5.93;3.35;;;11.80;99.90;;;;;;5066294;28;20488;-75
2022/11/15 10:57:36;;;;;;;4.80;3.03;;;11.90;99.90;;;;;;5065609;28;20036;-75
2022/11/15 11:00:32;;;;;;;4.88;2.90;;;11.90;99.90;;;;;;5062716;28;20037;-75
2022/11/15 11:03:06;;;;;;;3.63;2.70;;;12.00;99.90;;;;;;5053932;28;20048;-75
2022/11/15 11:05:39;;;;;;;3.78;2.80;;;12.10;99.90;;;;;;5059083;28;20040;-75
2022/11/15 11:08:25;;;;;;;5.10;2.60;;;12.10;99.90;;;;;;5057795;28;20021;-75
2022/11/15 11:10:59;;;;;;;6.68;2.38;;;12.20;99.90;;;;;;5068867;28;20052;-77
2022/11/15 11:13:37;;;;;;;4.90;2.58;;;12.20;99.90;;;;;;5058964;28;20020;-77
2022/11/15 11:16:33;;;;;;;5.03;2.30;;;12.20;99.90;;;;;;5057343;28;20028;-78
2022/11/15 11:19:16;;;;;;;4.00;2.55;;;12.20;99.90;;;;;;5057168;28;20033;-77
2022/11/15 11:21:50;;;;;;;3.75;2.35;;;12.30;99.90;;;;;;5068653;28;20017;-76
2022/11/15 11:24:40;;;;;;;3.92;2.45;;;12.30;99.90;;;;;;5068585;28;20020;-77
2022/11/15 11:27:21;;;;;;;5.45;2.60;;;12.30;99.90;;;;;;5066676;28;20035;-76
2022/11/15 11:30:09;;;;;;;6.10;2.50;;;12.30;99.90;;;;;;5068590;28;20098;-74
2022/11/15 11:33:11;;;;;;;4.15;2.22;;;12.40;99.90;;;;;;5067109;28;20029;-75
2022/11/15 11:35:59;;;;;;;9.65;3.63;;;12.50;99.90;;;;;;5064739;28;20374;-75
2022/11/15 11:38:42;;;;;;;6.20;3.08;;;12.60;99.90;;;;;;5067162;28;20068;-76
2022/11/15 11:41:37;;;;;;;4.65;2.75;;;12.80;99.90;;;;;;5068624;28;20029;-75
2022/11/15 11:44:24;;;;;;;6.47;2.70;;;12.80;99.90;;;;;;5048383;28;20470;-76
2022/11/15 11:46:55;;;;;;;7.25;2.90;;;12.80;99.90;;;;;;5051674;28;20135;-74
2022/11/15 11:49:35;;;;;;;5.18;2.70;;;12.90;99.90;;;;;;5072804;28;20021;-75
2022/11/15 11:52:07;;;;;;;4.38;2.53;;;12.90;99.90;;;;;;5068758;28;20024;-75
2022/11/15 11:54:50;;;;;;;5.32;2.58;;;12.90;99.90;;;;;;5057261;28;20029;-75
2022/11/15 11:57:43;;;;;;;4.65;2.60;;;12.90;99.90;;;;;;5054103;28;20025;-75
2022/11/15 12:00:24;;;;;;;6.50;2.50;;;12.90;99.90;;;;;;5048064;28;20032;-75
2022/11/15 12:02:55;;;;;;;7.75;2.38;;;12.90;99.90;;;;;;5069991;28;20039;-74
2022/11/15 12:05:45;;;;;;;4.97;2.83;;;12.90;99.90;;;;;;5064455;28;20021;-75
2022/11/15 12:08:25;;;;;;;4.97;2.60;;;13.00;99.90;;;;;;5048487;28;20027;-75
2022/11/15 12:11:06;;;;;;;4.82;2.95;;;12.90;99.90;;;;;;5056925;28;20053;-76
2022/11/15 12:13:36;;;;;;;4.50;2.53;;;12.90;99.90;;;;;;5058351;28;20057;-75
2022/11/15 12:16:18;;;;;;;4.65;2.83;;;12.90;99.90;;;;;;5058475;28;20033;-76
2022/11/15 12:18:50;;;;;;;5.43;2.58;;;12.90;99.90;;;;;;5065802;28;20102;-75
2022/11/15 12:21:26;;;;;;;4.68;2.50;;;13.00;99.90;;;;;;5058740;28;20021;-75
2022/11/15 12:24:03;;;;;;;8.82;2.47;;;13.00;99.90;;;;;;5045192;28;20024;-76
2022/11/15 12:26:37;;;;;;;6.80;2.58;;;12.90;99.90;;;;;;5062014;28;20474;-76
2022/11/15 12:29:24;;;;;;;6.30;2.90;;;12.90;99.90;;;;;;5066093;28;20021;-75
2022/11/15 12:31:55;;;;;;;5.25;2.60;;;12.90;99.90;;;;;;5044998;28;20025;-75
2022/11/15 12:34:20;;;;;;;4.75;2.58;;;13.10;99.90;;;;;;5055738;28;20039;-75
2022/11/15 12:36:47;;;;;;;5.30;2.90;;;13.10;99.90;;;;;;5063975;28;20028;-75
2022/11/15 12:39:14;;;;;;;4.75;2.80;;;13.10;99.90;;;;;;5064353;28;20104;-75
2022/11/15 12:41:43;;;;;;;3.97;2.45;;;13.20;99.90;;;;;;5064621;28;20035;-75
2022/11/15 12:44:32;;;;;;;6.03;2.70;;;13.30;99.90;;;;;;5067007;28;20017;-76
2022/11/15 12:47:04;;;;;;;4.28;2.70;;;13.40;99.90;;;;;;5053593;28;20479;-75
2022/11/15 12:49:29;;;;;;;5.18;2.92;;;13.50;99.90;;;;;;5066353;28;20017;-75
2022/11/15 12:51:58;;;;;;;4.60;2.85;;;13.60;99.90;;;;;;5056041;28;20099;-75
2022/11/15 12:54:24;;;;;;;5.40;2.70;;;13.60;99.90;;;;;;5055720;28;20029;-76
2022/11/15 12:57:07;;;;;;;5.32;3.15;;;13.70;99.90;;;;;;5065217;28;20090;-76
2022/11/15 12:59:54;;;;;;;5.05;2.88;;;13.70;99.90;;;;;;5061829;28;20115;-76
2022/11/15 13:02:23;;;;;;;4.05;2.70;;;13.70;99.90;;;;;;5057002;28;20028;-76
2022/11/15 13:04:50;;;;;;;5.35;2.38;;;13.60;99.90;;;;;;5055071;28;20469;-77
2022/11/15 13:07:34;;;;;;;6.18;2.90;;;13.60;99.90;;;;;;5064199;28;20052;-76
2022/11/15 13:10:21;;;;;;;5.22;2.63;;;13.60;99.90;;;;;;5046903;28;20045;-76
2022/11/15 13:12:46;;;;;;;6.22;2.70;;;13.60;99.90;;;;;;5056296;28;20044;-76
2022/11/15 13:15:12;;;;;;;5.78;2.50;;;13.50;99.90;;;;;;5058751;28;20481;-76
2022/11/15 13:17:49;;;;;;;8.07;2.20;;;13.60;99.90;;;;;;5063658;28;20033;-76
2022/11/15 13:20:15;;;;;;;3.90;2.17;;;13.60;99.90;;;;;;5062561;28;20108;-75